sensor_id;sensor_type;location;lat;lon;timestamp;pressure;altitude;pressure_sealevel;temperature
12918;BMP180;6526;54.312;13.092;2022-12-10T00:01:12;101361.00;;;0.60
12918;BMP180;6526;54.312;13.092;2022-12-10T00:03:39;101363.00;;;0.70
12918;BMP180;6526;54.312;13.092;2022-12-10T00:06:10;101363.00;;;0.80
12918;BMP180;6526;54.312;13.092;2022-12-10T00:08:36;101346.00;;;0.90
12918;BMP180;6526;54.312;13.092;2022-12-10T00:11:04;101348.00;;;0.90
12918;BMP180;6526;54.312;13.092;2022-12-10T00:13:30;101351.00;;;1.00
12918;BMP180;6526;54.312;13.092;2022-12-10T00:15:59;101350.00;;;1.10
12918;BMP180;6526;54.312;13.092;2022-12-10T00:18:25;101361.00;;;0.90
12918;BMP180;6526;54.312;13.092;2022-12-10T00:20:52;101356.00;;;0.80
12918;BMP180;6526;54.312;13.092;2022-12-10T00:23:18;101359.00;;;0.80
12918;BMP180;6526;54.312;13.092;2022-12-10T00:25:44;101366.00;;;0.90
12918;BMP180;6526;54.312;13.092;2022-12-10T00:28:10;101359.00;;;0.80
12918;BMP180;6526;54.312;13.092;2022-12-10T00:30:36;101352.00;;;0.50
12918;BMP180;6526;54.312;13.092;2022-12-10T00:33:02;101358.00;;;0.70
12918;BMP180;6526;54.312;13.092;2022-12-10T00:35:28;101345.00;;;0.70
12918;BMP180;6526;54.312;13.092;2022-12-10T00:37:55;101342.00;;;0.50
12918;BMP180;6526;54.312;13.092;2022-12-10T00:40:21;101357.00;;;0.80
12918;BMP180;6526;54.312;13.092;2022-12-10T00:42:48;101355.00;;;0.80
12918;BMP180;6526;54.312;13.092;2022-12-10T00:45:14;101349.00;;;0.80
12918;BMP180;6526;54.312;13.092;2022-12-10T00:47:40;101351.00;;;0.90
12918;BMP180;6526;54.312;13.092;2022-12-10T00:50:06;101361.00;;;1.00
12918;BMP180;6526;54.312;13.092;2022-12-10T00:52:32;101358.00;;;1.00
12918;BMP180;6526;54.312;13.092;2022-12-10T00:54:58;101359.00;;;1.10
12918;BMP180;6526;54.312;13.092;2022-12-10T00:57:24;101363.00;;;1.00
12918;BMP180;6526;54.312;13.092;2022-12-10T00:59:50;101362.00;;;0.80
12918;BMP180;6526;54.312;13.092;2022-12-10T01:02:16;101357.00;;;0.80
12918;BMP180;6526;54.312;13.092;2022-12-10T01:04:42;101356.00;;;0.70
12918;BMP180;6526;54.312;13.092;2022-12-10T01:07:08;101362.00;;;0.70
12918;BMP180;6526;54.312;13.092;2022-12-10T01:09:36;101350.00;;;0.80
12918;BMP180;6526;54.312;13.092;2022-12-10T01:12:03;101348.00;;;0.90
12918;BMP180;6526;54.312;13.092;2022-12-10T01:14:33;101357.00;;;0.90
12918;BMP180;6526;54.312;13.092;2022-12-10T01:17:01;101355.00;;;0.90
12918;BMP180;6526;54.312;13.092;2022-12-10T01:19:32;101363.00;;;0.80
12918;BMP180;6526;54.312;13.092;2022-12-10T01:21:58;101370.00;;;0.80
12918;BMP180;6526;54.312;13.092;2022-12-10T01:24:26;101359.00;;;0.70
12918;BMP180;6526;54.312;13.092;2022-12-10T01:26:53;101367.00;;;0.70
12918;BMP180;6526;54.312;13.092;2022-12-10T01:29:20;101375.00;;;0.70
12918;BMP180;6526;54.312;13.092;2022-12-10T01:31:51;101370.00;;;0.70
12918;BMP180;6526;54.312;13.092;2022-12-10T01:34:17;101371.00;;;0.70
12918;BMP180;6526;54.312;13.092;2022-12-10T01:36:45;101371.00;;;0.80
12918;BMP180;6526;54.312;13.092;2022-12-10T01:39:14;101362.00;;;0.90
12918;BMP180;6526;54.312;13.092;2022-12-10T01:41:59;101365.00;;;0.80
12918;BMP180;6526;54.312;13.092;2022-12-10T01:46:57;101365.00;;;0.80
12918;BMP180;6526;54.312;13.092;2022-12-10T01:49:34;101374.00;;;0.90
12918;BMP180;6526;54.312;13.092;2022-12-10T01:52:01;101378.00;;;0.70
12918;BMP180;6526;54.312;13.092;2022-12-10T01:54:31;101374.00;;;0.80
12918;BMP180;6526;54.312;13.092;2022-12-10T01:57:15;101374.00;;;0.70
12918;BMP180;6526;54.312;13.092;2022-12-10T01:59:46;101383.00;;;0.70
12918;BMP180;6526;54.312;13.092;2022-12-10T02:02:36;101376.00;;;0.80
12918;BMP180;6526;54.312;13.092;2022-12-10T02:05:20;101373.00;;;0.70
12918;BMP180;6526;54.312;13.092;2022-12-10T02:11:25;101379.00;;;0.40
12918;BMP180;6526;54.312;13.092;2022-12-10T02:14:17;101380.00;;;0.40
12918;BMP180;6526;54.312;13.092;2022-12-10T02:16:59;101373.00;;;0.60
12918;BMP180;6526;54.312;13.092;2022-12-10T02:19:54;101385.00;;;0.70
12918;BMP180;6526;54.312;13.092;2022-12-10T02:22:23;101388.00;;;0.70
12918;BMP180;6526;54.312;13.092;2022-12-10T02:24:52;101373.00;;;0.70
12918;BMP180;6526;54.312;13.092;2022-12-10T02:30:05;101376.00;;;0.70
12918;BMP180;6526;54.312;13.092;2022-12-10T02:32:35;101379.00;;;0.80
12918;BMP180;6526;54.312;13.092;2022-12-10T02:35:05;101374.00;;;0.80
12918;BMP180;6526;54.312;13.092;2022-12-10T02:37:38;101381.00;;;0.60
12918;BMP180;6526;54.312;13.092;2022-12-10T02:40:09;101382.00;;;0.60
12918;BMP180;6526;54.312;13.092;2022-12-10T02:42:40;101382.00;;;0.50
12918;BMP180;6526;54.312;13.092;2022-12-10T02:45:08;101380.00;;;0.60
12918;BMP180;6526;54.312;13.092;2022-12-10T02:47:35;101387.00;;;0.60
12918;BMP180;6526;54.312;13.092;2022-12-10T02:50:02;101381.00;;;0.70
12918;BMP180;6526;54.312;13.092;2022-12-10T02:52:29;101383.00;;;0.70
12918;BMP180;6526;54.312;13.092;2022-12-10T02:54:55;101375.00;;;0.90
12918;BMP180;6526;54.312;13.092;2022-12-10T02:57:35;101388.00;;;0.90
12918;BMP180;6526;54.312;13.092;2022-12-10T03:03:10;101402.00;;;0.70
12918;BMP180;6526;54.312;13.092;2022-12-10T03:05:47;101396.00;;;0.80
12918;BMP180;6526;54.312;13.092;2022-12-10T03:08:23;101399.00;;;0.70
12918;BMP180;6526;54.312;13.092;2022-12-10T03:11:08;101402.00;;;0.50
12918;BMP180;6526;54.312;13.092;2022-12-10T03:13:57;101398.00;;;0.70
12918;BMP180;6526;54.312;13.092;2022-12-10T03:16:25;101404.00;;;0.50
12918;BMP180;6526;54.312;13.092;2022-12-10T03:18:57;101399.00;;;0.40
12918;BMP180;6526;54.312;13.092;2022-12-10T03:21:25;101390.00;;;0.50
12918;BMP180;6526;54.312;13.092;2022-12-10T03:23:53;101398.00;;;0.60
12918;BMP180;6526;54.312;13.092;2022-12-10T03:26:21;101373.00;;;0.70
12918;BMP180;6526;54.312;13.092;2022-12-10T03:28:51;101400.00;;;0.70
12918;BMP180;6526;54.312;13.092;2022-12-10T03:31:19;101397.00;;;0.80
12918;BMP180;6526;54.312;13.092;2022-12-10T03:33:47;101392.00;;;0.70
12918;BMP180;6526;54.312;13.092;2022-12-10T03:36:15;101388.00;;;0.50
12918;BMP180;6526;54.312;13.092;2022-12-10T03:38:42;101392.00;;;0.40
12918;BMP180;6526;54.312;13.092;2022-12-10T03:41:08;101396.00;;;0.30
12918;BMP180;6526;54.312;13.092;2022-12-10T03:43:35;101383.00;;;0.10
12918;BMP180;6526;54.312;13.092;2022-12-10T03:46:01;101389.00;;;-0.10
12918;BMP180;6526;54.312;13.092;2022-12-10T03:48:27;101391.00;;;0.00
12918;BMP180;6526;54.312;13.092;2022-12-10T03:50:53;101385.00;;;-0.10
12918;BMP180;6526;54.312;13.092;2022-12-10T03:53:19;101383.00;;;0.00
12918;BMP180;6526;54.312;13.092;2022-12-10T03:55:45;101387.00;;;0.20
12918;BMP180;6526;54.312;13.092;2022-12-10T03:58:11;101401.00;;;0.30
12918;BMP180;6526;54.312;13.092;2022-12-10T04:00:37;101397.00;;;0.40
12918;BMP180;6526;54.312;13.092;2022-12-10T04:03:03;101398.00;;;0.40
12918;BMP180;6526;54.312;13.092;2022-12-10T04:05:29;101393.00;;;0.40
12918;BMP180;6526;54.312;13.092;2022-12-10T04:07:55;101395.00;;;0.30
12918;BMP180;6526;54.312;13.092;2022-12-10T04:10:21;101404.00;;;0.20
12918;BMP180;6526;54.312;13.092;2022-12-10T04:12:47;101390.00;;;0.00
12918;BMP180;6526;54.312;13.092;2022-12-10T04:15:33;101389.00;;;-0.10
12918;BMP180;6526;54.312;13.092;2022-12-10T04:18:34;101388.00;;;-0.20
12918;BMP180;6526;54.312;13.092;2022-12-10T04:21:00;101393.00;;;-0.30
12918;BMP180;6526;54.312;13.092;2022-12-10T04:23:59;101394.00;;;-0.30
12918;BMP180;6526;54.312;13.092;2022-12-10T04:26:44;101383.00;;;0.00
12918;BMP180;6526;54.312;13.092;2022-12-10T04:29:27;101383.00;;;0.00
12918;BMP180;6526;54.312;13.092;2022-12-10T04:31:53;101382.00;;;0.00
12918;BMP180;6526;54.312;13.092;2022-12-10T04:34:20;101383.00;;;0.10
12918;BMP180;6526;54.312;13.092;2022-12-10T04:36:47;101377.00;;;0.10
12918;BMP180;6526;54.312;13.092;2022-12-10T04:39:13;101390.00;;;0.10
12918;BMP180;6526;54.312;13.092;2022-12-10T04:41:41;101380.00;;;0.10
12918;BMP180;6526;54.312;13.092;2022-12-10T04:44:08;101385.00;;;0.10
12918;BMP180;6526;54.312;13.092;2022-12-10T04:46:34;101374.00;;;0.10
12918;BMP180;6526;54.312;13.092;2022-12-10T04:49:01;101383.00;;;0.20
12918;BMP180;6526;54.312;13.092;2022-12-10T04:51:27;101390.00;;;0.20
12918;BMP180;6526;54.312;13.092;2022-12-10T04:53:53;101389.00;;;0.30
12918;BMP180;6526;54.312;13.092;2022-12-10T04:56:19;101396.00;;;0.30
12918;BMP180;6526;54.312;13.092;2022-12-10T04:58:45;101383.00;;;0.30
12918;BMP180;6526;54.312;13.092;2022-12-10T05:01:11;101383.00;;;0.30
12918;BMP180;6526;54.312;13.092;2022-12-10T05:03:38;101385.00;;;0.30
12918;BMP180;6526;54.312;13.092;2022-12-10T05:06:11;101382.00;;;0.40
12918;BMP180;6526;54.312;13.092;2022-12-10T05:08:38;101384.00;;;0.40
12918;BMP180;6526;54.312;13.092;2022-12-10T05:11:16;101389.00;;;0.40
12918;BMP180;6526;54.312;13.092;2022-12-10T05:13:42;101385.00;;;0.40
12918;BMP180;6526;54.312;13.092;2022-12-10T05:16:11;101389.00;;;0.50
12918;BMP180;6526;54.312;13.092;2022-12-10T05:18:38;101392.00;;;0.50
12918;BMP180;6526;54.312;13.092;2022-12-10T05:21:06;101391.00;;;0.50
12918;BMP180;6526;54.312;13.092;2022-12-10T05:23:35;101388.00;;;0.40
12918;BMP180;6526;54.312;13.092;2022-12-10T05:26:19;101377.00;;;0.40
12918;BMP180;6526;54.312;13.092;2022-12-10T05:28:53;101388.00;;;0.40
12918;BMP180;6526;54.312;13.092;2022-12-10T05:31:25;101381.00;;;0.50
12918;BMP180;6526;54.312;13.092;2022-12-10T05:33:52;101392.00;;;0.50
12918;BMP180;6526;54.312;13.092;2022-12-10T05:36:21;101380.00;;;0.50
12918;BMP180;6526;54.312;13.092;2022-12-10T05:38:48;101396.00;;;0.40
12918;BMP180;6526;54.312;13.092;2022-12-10T05:41:18;101397.00;;;0.30
12918;BMP180;6526;54.312;13.092;2022-12-10T05:43:46;101392.00;;;0.30
12918;BMP180;6526;54.312;13.092;2022-12-10T05:46:32;101404.00;;;0.30
12918;BMP180;6526;54.312;13.092;2022-12-10T05:49:00;101404.00;;;0.30
12918;BMP180;6526;54.312;13.092;2022-12-10T05:51:29;101386.00;;;0.30
12918;BMP180;6526;54.312;13.092;2022-12-10T05:53:57;101397.00;;;0.50
12918;BMP180;6526;54.312;13.092;2022-12-10T05:56:24;101392.00;;;0.50
12918;BMP180;6526;54.312;13.092;2022-12-10T05:58:52;101387.00;;;0.40
12918;BMP180;6526;54.312;13.092;2022-12-10T06:01:21;101393.00;;;0.40
12918;BMP180;6526;54.312;13.092;2022-12-10T06:03:48;101394.00;;;0.60
12918;BMP180;6526;54.312;13.092;2022-12-10T06:06:21;101383.00;;;0.60
12918;BMP180;6526;54.312;13.092;2022-12-10T06:08:48;101401.00;;;0.50
12918;BMP180;6526;54.312;13.092;2022-12-10T06:11:14;101397.00;;;0.50
12918;BMP180;6526;54.312;13.092;2022-12-10T06:13:41;101394.00;;;0.50
12918;BMP180;6526;54.312;13.092;2022-12-10T06:16:09;101387.00;;;0.50
12918;BMP180;6526;54.312;13.092;2022-12-10T06:18:36;101387.00;;;0.60
12918;BMP180;6526;54.312;13.092;2022-12-10T06:21:06;101385.00;;;0.40
12918;BMP180;6526;54.312;13.092;2022-12-10T06:23:34;101396.00;;;0.40
12918;BMP180;6526;54.312;13.092;2022-12-10T06:26:06;101391.00;;;0.40
12918;BMP180;6526;54.312;13.092;2022-12-10T06:28:33;101396.00;;;0.40
12918;BMP180;6526;54.312;13.092;2022-12-10T06:30:59;101396.00;;;0.40
12918;BMP180;6526;54.312;13.092;2022-12-10T06:33:26;101402.00;;;0.50
12918;BMP180;6526;54.312;13.092;2022-12-10T06:35:52;101406.00;;;0.30
12918;BMP180;6526;54.312;13.092;2022-12-10T06:38:18;101410.00;;;0.20
12918;BMP180;6526;54.312;13.092;2022-12-10T06:40:44;101392.00;;;0.10
12918;BMP180;6526;54.312;13.092;2022-12-10T06:43:10;101395.00;;;0.10
12918;BMP180;6526;54.312;13.092;2022-12-10T06:45:41;101406.00;;;0.10
12918;BMP180;6526;54.312;13.092;2022-12-10T06:48:07;101407.00;;;0.20
12918;BMP180;6526;54.312;13.092;2022-12-10T06:50:33;101395.00;;;0.20
12918;BMP180;6526;54.312;13.092;2022-12-10T06:53:00;101386.00;;;0.10
12918;BMP180;6526;54.312;13.092;2022-12-10T06:55:26;101388.00;;;0.10
12918;BMP180;6526;54.312;13.092;2022-12-10T06:57:52;101403.00;;;0.20
12918;BMP180;6526;54.312;13.092;2022-12-10T07:00:19;101395.00;;;0.10
12918;BMP180;6526;54.312;13.092;2022-12-10T07:02:46;101396.00;;;0.20
12918;BMP180;6526;54.312;13.092;2022-12-10T07:05:12;101403.00;;;0.20
12918;BMP180;6526;54.312;13.092;2022-12-10T07:07:38;101418.00;;;0.20
12918;BMP180;6526;54.312;13.092;2022-12-10T07:10:05;101414.00;;;0.20
12918;BMP180;6526;54.312;13.092;2022-12-10T07:12:31;101409.00;;;0.10
12918;BMP180;6526;54.312;13.092;2022-12-10T07:14:57;101401.00;;;0.00
12918;BMP180;6526;54.312;13.092;2022-12-10T07:17:23;101397.00;;;-0.10
12918;BMP180;6526;54.312;13.092;2022-12-10T07:19:49;101402.00;;;-0.10
12918;BMP180;6526;54.312;13.092;2022-12-10T07:22:15;101398.00;;;0.00
12918;BMP180;6526;54.312;13.092;2022-12-10T07:24:41;101404.00;;;-0.10
12918;BMP180;6526;54.312;13.092;2022-12-10T07:27:08;101415.00;;;-0.10
12918;BMP180;6526;54.312;13.092;2022-12-10T07:29:34;101411.00;;;-0.10
12918;BMP180;6526;54.312;13.092;2022-12-10T07:32:00;101418.00;;;-0.10
12918;BMP180;6526;54.312;13.092;2022-12-10T07:34:26;101418.00;;;-0.10
12918;BMP180;6526;54.312;13.092;2022-12-10T07:36:52;101428.00;;;-0.10
12918;BMP180;6526;54.312;13.092;2022-12-10T07:39:18;101426.00;;;-0.10
12918;BMP180;6526;54.312;13.092;2022-12-10T07:41:50;101430.00;;;-0.30
12918;BMP180;6526;54.312;13.092;2022-12-10T07:44:18;101428.00;;;-0.30
12918;BMP180;6526;54.312;13.092;2022-12-10T07:46:47;101425.00;;;-0.40
12918;BMP180;6526;54.312;13.092;2022-12-10T07:49:14;101432.00;;;-0.30
12918;BMP180;6526;54.312;13.092;2022-12-10T07:51:43;101430.00;;;-0.30
12918;BMP180;6526;54.312;13.092;2022-12-10T07:54:09;101423.00;;;-0.40
12918;BMP180;6526;54.312;13.092;2022-12-10T07:56:35;101429.00;;;-0.40
12918;BMP180;6526;54.312;13.092;2022-12-10T07:59:01;101429.00;;;-0.40
12918;BMP180;6526;54.312;13.092;2022-12-10T08:01:27;101441.00;;;-0.40
12918;BMP180;6526;54.312;13.092;2022-12-10T08:03:54;101442.00;;;-0.50
12918;BMP180;6526;54.312;13.092;2022-12-10T08:06:25;101450.00;;;-0.50
12918;BMP180;6526;54.312;13.092;2022-12-10T08:08:51;101456.00;;;-0.50
12918;BMP180;6526;54.312;13.092;2022-12-10T08:11:19;101457.00;;;-0.40
12918;BMP180;6526;54.312;13.092;2022-12-10T08:13:45;101448.00;;;-0.40
12918;BMP180;6526;54.312;13.092;2022-12-10T08:16:15;101462.00;;;-0.30
12918;BMP180;6526;54.312;13.092;2022-12-10T08:18:42;101457.00;;;-0.40
12918;BMP180;6526;54.312;13.092;2022-12-10T08:21:13;101472.00;;;-0.30
12918;BMP180;6526;54.312;13.092;2022-12-10T08:23:41;101462.00;;;-0.30
12918;BMP180;6526;54.312;13.092;2022-12-10T08:26:09;101467.00;;;-0.20
12918;BMP180;6526;54.312;13.092;2022-12-10T08:28:36;101464.00;;;-0.30
12918;BMP180;6526;54.312;13.092;2022-12-10T08:31:03;101468.00;;;-0.40
12918;BMP180;6526;54.312;13.092;2022-12-10T08:33:29;101469.00;;;-0.40
12918;BMP180;6526;54.312;13.092;2022-12-10T08:35:59;101464.00;;;-0.40
12918;BMP180;6526;54.312;13.092;2022-12-10T08:38:25;101470.00;;;-0.50
12918;BMP180;6526;54.312;13.092;2022-12-10T08:40:52;101471.00;;;-0.40
12918;BMP180;6526;54.312;13.092;2022-12-10T08:43:18;101474.00;;;-0.50
12918;BMP180;6526;54.312;13.092;2022-12-10T08:45:44;101459.00;;;-0.50
12918;BMP180;6526;54.312;13.092;2022-12-10T08:48:10;101480.00;;;-0.50
12918;BMP180;6526;54.312;13.092;2022-12-10T08:50:37;101468.00;;;-0.40
12918;BMP180;6526;54.312;13.092;2022-12-10T08:53:03;101470.00;;;-0.30
12918;BMP180;6526;54.312;13.092;2022-12-10T08:55:29;101482.00;;;-0.30
12918;BMP180;6526;54.312;13.092;2022-12-10T08:57:56;101489.00;;;-0.20
12918;BMP180;6526;54.312;13.092;2022-12-10T09:00:23;101490.00;;;-0.20
12918;BMP180;6526;54.312;13.092;2022-12-10T09:02:49;101472.00;;;-0.20
12918;BMP180;6526;54.312;13.092;2022-12-10T09:05:15;101480.00;;;-0.20
12918;BMP180;6526;54.312;13.092;2022-12-10T09:07:41;101485.00;;;-0.20
12918;BMP180;6526;54.312;13.092;2022-12-10T09:10:09;101489.00;;;-0.30
12918;BMP180;6526;54.312;13.092;2022-12-10T09:12:36;101484.00;;;-0.30
12918;BMP180;6526;54.312;13.092;2022-12-10T09:15:02;101479.00;;;-0.20
12918;BMP180;6526;54.312;13.092;2022-12-10T09:17:28;101481.00;;;-0.20
12918;BMP180;6526;54.312;13.092;2022-12-10T09:19:54;101477.00;;;-0.20
12918;BMP180;6526;54.312;13.092;2022-12-10T09:22:20;101482.00;;;0.00
12918;BMP180;6526;54.312;13.092;2022-12-10T09:24:46;101489.00;;;0.10
12918;BMP180;6526;54.312;13.092;2022-12-10T09:27:12;101485.00;;;0.00
12918;BMP180;6526;54.312;13.092;2022-12-10T09:29:38;101477.00;;;0.10
12918;BMP180;6526;54.312;13.092;2022-12-10T09:32:04;101480.00;;;0.10
12918;BMP180;6526;54.312;13.092;2022-12-10T09:34:30;101475.00;;;0.10
12918;BMP180;6526;54.312;13.092;2022-12-10T09:36:56;101472.00;;;0.10
12918;BMP180;6526;54.312;13.092;2022-12-10T09:39:22;101477.00;;;0.20
12918;BMP180;6526;54.312;13.092;2022-12-10T09:44:34;101480.00;;;0.30
12918;BMP180;6526;54.312;13.092;2022-12-10T09:47:05;101475.00;;;0.30
12918;BMP180;6526;54.312;13.092;2022-12-10T09:52:14;101473.00;;;0.30
12918;BMP180;6526;54.312;13.092;2022-12-10T09:55:02;101478.00;;;0.10
12918;BMP180;6526;54.312;13.092;2022-12-10T09:57:48;101470.00;;;0.20
12918;BMP180;6526;54.312;13.092;2022-12-10T10:00:42;101483.00;;;0.10
12918;BMP180;6526;54.312;13.092;2022-12-10T10:03:13;101468.00;;;0.30
12918;BMP180;6526;54.312;13.092;2022-12-10T10:05:42;101480.00;;;0.40
12918;BMP180;6526;54.312;13.092;2022-12-10T10:08:31;101476.00;;;0.40
12918;BMP180;6526;54.312;13.092;2022-12-10T10:10:59;101473.00;;;0.40
12918;BMP180;6526;54.312;13.092;2022-12-10T10:13:42;101477.00;;;0.40
12918;BMP180;6526;54.312;13.092;2022-12-10T10:16:20;101468.00;;;0.50
12918;BMP180;6526;54.312;13.092;2022-12-10T10:19:01;101475.00;;;0.60
12918;BMP180;6526;54.312;13.092;2022-12-10T10:21:30;101475.00;;;0.70
12918;BMP180;6526;54.312;13.092;2022-12-10T10:23:59;101466.00;;;0.60
12918;BMP180;6526;54.312;13.092;2022-12-10T10:26:28;101489.00;;;0.40
12918;BMP180;6526;54.312;13.092;2022-12-10T10:29:00;101474.00;;;0.40
12918;BMP180;6526;54.312;13.092;2022-12-10T10:31:29;101482.00;;;0.40
12918;BMP180;6526;54.312;13.092;2022-12-10T10:34:00;101483.00;;;0.50
12918;BMP180;6526;54.312;13.092;2022-12-10T10:36:29;101480.00;;;0.60
12918;BMP180;6526;54.312;13.092;2022-12-10T10:38:56;101476.00;;;0.50
12918;BMP180;6526;54.312;13.092;2022-12-10T10:41:24;101472.00;;;0.50
12918;BMP180;6526;54.312;13.092;2022-12-10T10:44:00;101475.00;;;0.60
12918;BMP180;6526;54.312;13.092;2022-12-10T10:46:27;101474.00;;;0.60
12918;BMP180;6526;54.312;13.092;2022-12-10T10:49:19;101463.00;;;0.70
12918;BMP180;6526;54.312;13.092;2022-12-10T10:51:47;101474.00;;;0.80
12918;BMP180;6526;54.312;13.092;2022-12-10T10:54:32;101484.00;;;0.90
12918;BMP180;6526;54.312;13.092;2022-12-10T10:57:08;101478.00;;;1.00
12918;BMP180;6526;54.312;13.092;2022-12-10T10:59:37;101477.00;;;1.00
12918;BMP180;6526;54.312;13.092;2022-12-10T11:05:01;101471.00;;;0.90
12918;BMP180;6526;54.312;13.092;2022-12-10T11:09:59;101482.00;;;0.90
12918;BMP180;6526;54.312;13.092;2022-12-10T11:12:38;101474.00;;;1.10
12918;BMP180;6526;54.312;13.092;2022-12-10T11:15:31;101482.00;;;1.10
12918;BMP180;6526;54.312;13.092;2022-12-10T11:17:58;101472.00;;;1.00
12918;BMP180;6526;54.312;13.092;2022-12-10T11:22:58;101475.00;;;0.90
12918;BMP180;6526;54.312;13.092;2022-12-10T11:30:57;101468.00;;;1.10
12918;BMP180;6526;54.312;13.092;2022-12-10T11:33:42;101461.00;;;1.20
12918;BMP180;6526;54.312;13.092;2022-12-10T11:36:44;101468.00;;;1.20
12918;BMP180;6526;54.312;13.092;2022-12-10T11:42:04;101471.00;;;1.30
12918;BMP180;6526;54.312;13.092;2022-12-10T11:47:35;101473.00;;;1.20
12918;BMP180;6526;54.312;13.092;2022-12-10T11:50:13;101470.00;;;1.20
12918;BMP180;6526;54.312;13.092;2022-12-10T11:53:11;101480.00;;;1.30
12918;BMP180;6526;54.312;13.092;2022-12-10T11:55:42;101479.00;;;1.20
12918;BMP180;6526;54.312;13.092;2022-12-10T12:01:27;101464.00;;;1.40
12918;BMP180;6526;54.312;13.092;2022-12-10T12:04:14;101464.00;;;1.40
12918;BMP180;6526;54.312;13.092;2022-12-10T12:09:37;101454.00;;;1.30
12918;BMP180;6526;54.312;13.092;2022-12-10T12:14:53;101458.00;;;1.40
12918;BMP180;6526;54.312;13.092;2022-12-10T12:17:41;101448.00;;;1.50
12918;BMP180;6526;54.312;13.092;2022-12-10T12:22:41;101471.00;;;1.70
12918;BMP180;6526;54.312;13.092;2022-12-10T12:25:22;101460.00;;;1.70
12918;BMP180;6526;54.312;13.092;2022-12-10T12:28:04;101466.00;;;1.70
12918;BMP180;6526;54.312;13.092;2022-12-10T12:30:33;101470.00;;;1.80
12918;BMP180;6526;54.312;13.092;2022-12-10T12:36:05;101467.00;;;1.70
12918;BMP180;6526;54.312;13.092;2022-12-10T12:39:12;101482.00;;;1.70
12918;BMP180;6526;54.312;13.092;2022-12-10T12:44:26;101482.00;;;1.80
12918;BMP180;6526;54.312;13.092;2022-12-10T12:46:57;101484.00;;;1.90
12918;BMP180;6526;54.312;13.092;2022-12-10T12:49:37;101482.00;;;1.90
12918;BMP180;6526;54.312;13.092;2022-12-10T12:54:46;101471.00;;;1.90
12918;BMP180;6526;54.312;13.092;2022-12-10T13:02:48;101474.00;;;2.10
12918;BMP180;6526;54.312;13.092;2022-12-10T13:05:25;101464.00;;;2.20
12918;BMP180;6526;54.312;13.092;2022-12-10T13:13:41;101469.00;;;2.20
12918;BMP180;6526;54.312;13.092;2022-12-10T13:22:05;101481.00;;;1.90
12918;BMP180;6526;54.312;13.092;2022-12-10T13:24:46;101494.00;;;1.80
12918;BMP180;6526;54.312;13.092;2022-12-10T13:29:57;101491.00;;;1.70
12918;BMP180;6526;54.312;13.092;2022-12-10T13:40:40;101500.00;;;1.50
12918;BMP180;6526;54.312;13.092;2022-12-10T13:46:52;101515.00;;;1.50
12918;BMP180;6526;54.312;13.092;2022-12-10T13:49:20;101522.00;;;1.50
12918;BMP180;6526;54.312;13.092;2022-12-10T13:57:46;101506.00;;;1.40
12918;BMP180;6526;54.312;13.092;2022-12-10T14:00:23;101502.00;;;1.40
12918;BMP180;6526;54.312;13.092;2022-12-10T14:06:16;101501.00;;;1.20
12918;BMP180;6526;54.312;13.092;2022-12-10T14:08:55;101494.00;;;1.10
12918;BMP180;6526;54.312;13.092;2022-12-10T14:11:28;101504.00;;;1.10
12918;BMP180;6526;54.312;13.092;2022-12-10T14:13:58;101505.00;;;1.20
12918;BMP180;6526;54.312;13.092;2022-12-10T14:16:30;101514.00;;;1.20
12918;BMP180;6526;54.312;13.092;2022-12-10T14:19:01;101518.00;;;1.20
12918;BMP180;6526;54.312;13.092;2022-12-10T14:21:34;101511.00;;;1.30
12918;BMP180;6526;54.312;13.092;2022-12-10T14:24:00;101519.00;;;1.20
12918;BMP180;6526;54.312;13.092;2022-12-10T14:26:32;101523.00;;;1.10
12918;BMP180;6526;54.312;13.092;2022-12-10T14:29:12;101509.00;;;1.00
12918;BMP180;6526;54.312;13.092;2022-12-10T14:31:46;101513.00;;;0.90
12918;BMP180;6526;54.312;13.092;2022-12-10T14:34:16;101521.00;;;1.00
12918;BMP180;6526;54.312;13.092;2022-12-10T14:36:48;101513.00;;;1.10
12918;BMP180;6526;54.312;13.092;2022-12-10T14:39:17;101514.00;;;0.90
12918;BMP180;6526;54.312;13.092;2022-12-10T14:41:46;101507.00;;;0.90
12918;BMP180;6526;54.312;13.092;2022-12-10T14:44:15;101508.00;;;0.80
12918;BMP180;6526;54.312;13.092;2022-12-10T14:46:42;101508.00;;;0.80
12918;BMP180;6526;54.312;13.092;2022-12-10T14:49:28;101507.00;;;0.80
12918;BMP180;6526;54.312;13.092;2022-12-10T14:51:56;101519.00;;;0.90
12918;BMP180;6526;54.312;13.092;2022-12-10T14:54:32;101516.00;;;1.00
12918;BMP180;6526;54.312;13.092;2022-12-10T14:57:04;101519.00;;;1.00
12918;BMP180;6526;54.312;13.092;2022-12-10T14:59:38;101506.00;;;0.90
12918;BMP180;6526;54.312;13.092;2022-12-10T15:02:20;101513.00;;;0.80
12918;BMP180;6526;54.312;13.092;2022-12-10T15:04:48;101520.00;;;0.90
12918;BMP180;6526;54.312;13.092;2022-12-10T15:07:18;101517.00;;;0.90
12918;BMP180;6526;54.312;13.092;2022-12-10T15:09:47;101519.00;;;0.90
12918;BMP180;6526;54.312;13.092;2022-12-10T15:12:49;101515.00;;;0.90
12918;BMP180;6526;54.312;13.092;2022-12-10T15:17:59;101527.00;;;0.70
12918;BMP180;6526;54.312;13.092;2022-12-10T15:20:31;101507.00;;;0.70
12918;BMP180;6526;54.312;13.092;2022-12-10T15:23:41;101518.00;;;0.70
12918;BMP180;6526;54.312;13.092;2022-12-10T15:26:21;101518.00;;;0.70
12918;BMP180;6526;54.312;13.092;2022-12-10T15:28:49;101511.00;;;0.70
12918;BMP180;6526;54.312;13.092;2022-12-10T15:33:55;101521.00;;;0.50
12918;BMP180;6526;54.312;13.092;2022-12-10T15:36:38;101532.00;;;0.40
12918;BMP180;6526;54.312;13.092;2022-12-10T15:44:32;101521.00;;;0.40
12918;BMP180;6526;54.312;13.092;2022-12-10T15:47:18;101533.00;;;0.30
12918;BMP180;6526;54.312;13.092;2022-12-10T15:49:46;101519.00;;;0.30
12918;BMP180;6526;54.312;13.092;2022-12-10T15:52:17;101529.00;;;0.30
12918;BMP180;6526;54.312;13.092;2022-12-10T15:54:46;101544.00;;;0.20
12918;BMP180;6526;54.312;13.092;2022-12-10T15:57:15;101543.00;;;0.30
12918;BMP180;6526;54.312;13.092;2022-12-10T15:59:42;101539.00;;;0.30
12918;BMP180;6526;54.312;13.092;2022-12-10T16:02:35;101534.00;;;0.40
12918;BMP180;6526;54.312;13.092;2022-12-10T16:05:27;101528.00;;;0.30
12918;BMP180;6526;54.312;13.092;2022-12-10T16:07:56;101534.00;;;0.20
12918;BMP180;6526;54.312;13.092;2022-12-10T16:10:25;101523.00;;;0.20
12918;BMP180;6526;54.312;13.092;2022-12-10T16:13:00;101531.00;;;0.20
12918;BMP180;6526;54.312;13.092;2022-12-10T16:15:29;101530.00;;;0.30